Time;durP1;ratioP1;P1;durP2;ratioP2;P2;SDS_P1;SDS_P2;PMS_P1;PMS_P2;Temp;Humidity;BMP_temperature;BMP_pressure;BME280_temperature;BME280_humidity;BME280_pressure;Samples;Min_cycle;Max_cycle;Signal;HPM_P1;HPM_P2
2023/08/12 00:02:14;;;;;;;0.20;0.20;;;17.30;1.00;;;;;;5061051;28;20047;-89
2023/08/12 00:04:39;;;;;;;0.00;0.00;;;18.00;1.00;;;;;;5059202;28;20514;-89
2023/08/12 00:07:05;;;;;;;0.00;0.00;;;18.00;1.00;;;;;;5063527;28;20033;-89
2023/08/12 00:09:30;;;;;;;0.03;0.00;;;18.00;1.00;;;;;;5048444;28;20044;-92
2023/08/12 00:11:56;;;;;;;0.10;0.10;;;19.40;1.00;;;;;;5058236;28;20047;-90
2023/08/12 00:14:22;;;;;;;0.00;0.00;;;18.00;4.30;;;;;;5054931;28;20048;-89
2023/08/12 00:16:48;;;;;;;0.08;0.00;;;18.50;24.50;;;;;;5062384;28;20384;-91
2023/08/12 00:19:13;;;;;;;0.10;0.10;;;17.90;32.70;;;;;;5059979;28;20098;-89
2023/08/12 00:21:39;;;;;;;0.10;0.10;;;17.90;9.60;;;;;;5042899;28;20127;-89
2023/08/12 00:24:05;;;;;;;0.00;0.00;;;17.90;32.00;;;;;;5052579;28;20775;-90
2023/08/12 00:26:31;;;;;;;0.00;0.00;;;17.90;55.30;;;;;;5051116;28;20076;-89
2023/08/12 00:28:56;;;;;;;0.10;0.10;;;17.90;75.90;;;;;;5050620;28;20448;-89
2023/08/12 00:31:22;;;;;;;0.85;0.35;;;17.90;87.80;;;;;;5052247;28;20045;-89
2023/08/12 00:33:48;;;;;;;0.00;0.00;;;17.90;99.90;;;;;;5058229;28;20110;-89
2023/08/12 00:36:13;;;;;;;1.90;0.28;;;17.80;99.90;;;;;;5056678;28;20136;-89
2023/08/12 00:38:39;;;;;;;0.13;0.05;;;18.00;99.90;;;;;;5056462;28;20079;-90
2023/08/12 00:41:05;;;;;;;0.32;0.20;;;17.80;99.90;;;;;;5037953;28;20410;-89
2023/08/12 00:43:31;;;;;;;0.45;0.10;;;17.80;99.90;;;;;;5054165;28;20104;-90
2023/08/12 00:45:57;;;;;;;0.05;0.05;;;17.70;99.90;;;;;;5039921;28;20056;-89
2023/08/12 00:48:25;;;;;;;0.10;0.10;;;18.10;99.90;;;;;;5038831;28;20056;-89
2023/08/12 00:50:52;;;;;;;0.52;0.40;;;17.70;99.90;;;;;;5054411;28;20435;-90
2023/08/12 00:53:18;;;;;;;0.13;0.10;;;17.70;99.90;;;;;;5057592;28;20060;-90
2023/08/12 00:55:43;;;;;;;0.30;0.25;;;17.70;99.90;;;;;;5057290;28;20445;-89
2023/08/12 00:58:09;;;;;;;0.55;0.45;;;17.80;99.90;;;;;;5039228;28;20052;-90
2023/08/12 01:00:35;;;;;;;0.20;0.20;;;17.70;99.90;;;;;;5061716;28;20168;-89
2023/08/12 01:03:01;;;;;;;0.20;0.10;;;17.90;99.90;;;;;;5039724;28;20103;-89
2023/08/12 01:05:27;;;;;;;0.20;0.10;;;17.80;99.90;;;;;;5053944;28;20048;-89
2023/08/12 01:07:53;;;;;;;0.93;0.63;;;17.80;99.90;;;;;;5037544;28;20044;-89
2023/08/12 01:10:23;;;;;;;0.13;0.13;;;18.80;99.90;;;;;;5055215;28;20403;-89
2023/08/12 01:13:38;;;;;;;0.13;0.10;;;17.70;99.90;;;;;;5054612;28;20051;-90
2023/08/12 01:16:08;;;;;;;0.65;0.17;;;16.60;99.90;;;;;;5049405;28;20055;-90
2023/08/12 01:18:34;;;;;;;0.10;0.10;;;17.70;99.90;;;;;;5053571;28;20075;-90
2023/08/12 01:21:03;;;;;;;1.40;0.20;;;17.70;99.90;;;;;;5054010;28;20105;-90
2023/08/12 01:23:29;;;;;;;2.67;0.63;;;17.60;99.90;;;;;;5059526;28;20059;-90
2023/08/12 01:25:55;;;;;;;0.47;0.38;;;17.60;99.90;;;;;;5061805;28;20045;-90
2023/08/12 01:28:21;;;;;;;0.52;0.52;;;17.60;99.90;;;;;;5059222;28;20053;-90
2023/08/12 01:31:01;;;;;;;0.28;0.28;;;17.60;99.90;;;;;;5059446;28;20048;-90
2023/08/12 01:33:34;;;;;;;0.28;0.28;;;17.60;99.90;;;;;;5038873;28;20576;-90
2023/08/12 01:36:09;;;;;;;0.05;0.03;;;17.70;99.90;;;;;;5055561;28;20454;-90
2023/08/12 01:38:38;;;;;;;0.85;0.52;;;17.60;99.90;;;;;;5057861;28;20041;-89
2023/08/12 01:41:04;;;;;;;0.20;0.13;;;17.60;99.90;;;;;;5061830;28;20052;-89
2023/08/12 01:43:30;;;;;;;0.55;0.35;;;17.50;99.90;;;;;;5040577;28;20356;-90
2023/08/12 01:45:56;;;;;;;0.17;0.08;;;17.50;99.90;;;;;;5040093;28;20041;-90
2023/08/12 01:48:23;;;;;;;0.32;0.20;;;17.50;99.90;;;;;;5055960;28;20056;-90
2023/08/12 01:50:48;;;;;;;0.10;0.10;;;17.50;99.90;;;;;;5057804;28;20503;-89
2023/08/12 01:53:14;;;;;;;1.75;0.98;;;17.70;99.90;;;;;;5059253;28;20052;-90
2023/08/12 01:55:43;;;;;;;0.22;0.22;;;17.50;99.90;;;;;;5039412;28;20220;-90
2023/08/12 01:58:09;;;;;;;0.10;0.10;;;17.50;99.90;;;;;;5056531;28;20051;-90
2023/08/12 02:00:35;;;;;;;3.97;0.10;;;17.50;99.90;;;;;;5039286;28;20064;-89
2023/08/12 02:03:00;;;;;;;0.10;0.10;;;17.50;99.90;;;;;;5038092;28;20076;-89
2023/08/12 02:05:26;;;;;;;1.45;1.35;;;17.50;99.90;;;;;;5058538;28;20045;-90
2023/08/12 02:07:52;;;;;;;0.10;0.10;;;17.50;99.90;;;;;;5055985;28;20045;-89
2023/08/12 02:10:18;;;;;;;0.20;0.10;;;18.80;99.90;;;;;;5053053;28;20119;-89
2023/08/12 02:12:43;;;;;;;0.38;0.38;;;17.50;99.90;;;;;;5051501;28;20045;-90
2023/08/12 02:15:09;;;;;;;0.10;0.10;;;18.20;99.90;;;;;;5035741;28;20552;-89
2023/08/12 02:17:35;;;;;;;0.35;0.30;;;17.50;99.90;;;;;;5051118;28;20049;-89
2023/08/12 02:20:01;;;;;;;0.52;0.52;;;17.60;99.90;;;;;;5052532;28;20072;-90
2023/08/12 02:22:26;;;;;;;0.45;0.30;;;17.70;99.90;;;;;;5037475;28;20045;-90
2023/08/12 02:24:52;;;;;;;1.13;0.68;;;17.70;99.90;;;;;;5056323;28;20106;-89
2023/08/12 02:27:18;;;;;;;0.05;0.05;;;17.80;99.90;;;;;;5055524;28;20061;-90
2023/08/12 02:29:44;;;;;;;0.25;0.25;;;17.80;99.90;;;;;;5054017;28;20406;-90
2023/08/12 02:32:09;;;;;;;0.15;0.08;;;18.80;99.90;;;;;;5037006;28;20483;-90
2023/08/12 02:34:35;;;;;;;0.20;0.20;;;19.10;99.90;;;;;;5053767;28;20137;-90
2023/08/12 02:37:01;;;;;;;0.00;0.00;;;18.40;99.90;;;;;;5055800;28;20092;-90
2023/08/12 02:39:26;;;;;;;3.38;1.02;;;18.00;99.90;;;;;;5057274;28;20059;-90
2023/08/12 02:41:52;;;;;;;0.20;0.20;;;18.10;99.90;;;;;;5055768;28;20049;-89
2023/08/12 02:44:18;;;;;;;2.05;1.05;;;18.90;99.90;;;;;;5054568;28;20049;-90
2023/08/12 02:46:43;;;;;;;1.13;0.88;;;19.10;99.90;;;;;;5038021;28;20060;-90
2023/08/12 02:49:09;;;;;;;1.10;0.70;;;18.10;99.90;;;;;;5055084;28;20080;-90
2023/08/12 02:51:35;;;;;;;0.22;0.22;;;19.00;99.90;;;;;;5058780;28;20128;-90
2023/08/12 02:54:01;;;;;;;1.17;0.52;;;18.00;99.90;;;;;;5054155;28;20088;-90
2023/08/12 02:56:26;;;;;;;0.70;0.70;;;19.00;99.90;;;;;;5041197;28;20056;-90
2023/08/12 02:58:52;;;;;;;1.67;1.13;;;18.10;99.90;;;;;;5040581;28;20140;-90
2023/08/12 03:01:18;;;;;;;0.90;0.75;;;18.10;99.90;;;;;;5056659;28;20045;-90
2023/08/12 03:03:44;;;;;;;0.30;0.30;;;18.10;99.90;;;;;;5057407;28;20100;-90
2023/08/12 03:06:10;;;;;;;0.13;0.10;;;18.20;99.90;;;;;;5042216;28;20115;-90
2023/08/12 03:08:36;;;;;;;0.60;0.40;;;18.00;99.90;;;;;;5037900;28;20040;-90
2023/08/12 03:11:02;;;;;;;2.05;0.30;;;18.30;99.90;;;;;;5054222;28;20052;-90
2023/08/12 03:13:28;;;;;;;0.30;0.30;;;17.80;99.90;;;;;;5054287;28;20633;-88
2023/08/12 03:15:54;;;;;;;1.05;0.63;;;17.90;99.90;;;;;;5053870;28;20059;-89
2023/08/12 03:18:21;;;;;;;0.40;0.40;;;17.80;99.90;;;;;;5038049;28;20049;-89
2023/08/12 03:20:47;;;;;;;0.90;0.65;;;16.60;99.90;;;;;;5036529;28;20106;-89
2023/08/12 03:23:13;;;;;;;1.13;0.77;;;17.70;99.90;;;;;;5056830;28;20124;-89
2023/08/12 03:25:39;;;;;;;0.57;0.50;;;17.70;99.90;;;;;;5057469;28;20045;-90
2023/08/12 03:28:04;;;;;;;0.47;0.40;;;17.60;99.90;;;;;;5055679;28;20052;-90
2023/08/12 03:30:31;;;;;;;0.43;0.43;;;17.50;99.90;;;;;;5040165;28;20454;-90
2023/08/12 03:32:56;;;;;;;0.57;0.40;;;18.50;99.90;;;;;;5058794;28;20056;-90
2023/08/12 03:35:22;;;;;;;0.32;0.22;;;17.40;99.90;;;;;;5054875;28;20061;-89
2023/08/12 03:37:48;;;;;;;4.25;1.15;;;17.40;99.90;;;;;;5055606;28;20053;-89
2023/08/12 03:40:14;;;;;;;0.50;0.40;;;17.40;99.90;;;;;;5041970;28;20522;-89
2023/08/12 03:42:40;;;;;;;0.65;0.40;;;17.30;99.90;;;;;;5042916;28;20048;-89
2023/08/12 03:45:06;;;;;;;0.98;0.65;;;17.30;99.90;;;;;;5061002;28;20045;-89
2023/08/12 03:47:32;;;;;;;0.28;0.28;;;17.20;99.90;;;;;;5042672;28;20041;-89
2023/08/12 03:49:58;;;;;;;1.02;0.93;;;17.20;99.90;;;;;;5044044;28;20048;-89
2023/08/12 03:52:24;;;;;;;2.55;0.65;;;18.10;99.90;;;;;;5062037;28;20056;-89
2023/08/12 03:54:49;;;;;;;1.67;0.45;;;18.40;99.90;;;;;;5060925;28;20041;-89
2023/08/12 03:57:15;;;;;;;0.50;0.32;;;18.80;99.90;;;;;;5058678;28;20483;-89
2023/08/12 03:59:40;;;;;;;2.45;1.08;;;17.40;99.90;;;;;;5056396;28;20053;-89
2023/08/12 04:02:06;;;;;;;0.73;0.70;;;17.50;99.90;;;;;;5042079;28;20057;-89
2023/08/12 04:04:32;;;;;;;0.65;0.65;;;17.60;99.90;;;;;;5041678;28;20088;-89
2023/08/12 04:06:58;;;;;;;4.78;1.08;;;19.20;99.90;;;;;;5045048;28;20056;-89
2023/08/12 04:09:24;;;;;;;0.65;0.40;;;17.70;99.90;;;;;;5056595;28;20041;-89
2023/08/12 04:11:49;;;;;;;0.60;0.45;;;17.80;99.90;;;;;;5038616;28;20510;-90
2023/08/12 04:14:15;;;;;;;1.35;0.75;;;17.90;99.90;;;;;;5044012;28;20065;-89
2023/08/12 04:16:41;;;;;;;2.65;0.93;;;17.90;99.90;;;;;;5059528;28;20045;-89
2023/08/12 04:19:07;;;;;;;0.65;0.60;;;17.90;99.90;;;;;;5058872;28;20040;-90
2023/08/12 04:21:32;;;;;;;0.38;0.38;;;18.00;99.90;;;;;;5039866;28;20079;-89
2023/08/12 04:23:58;;;;;;;3.97;0.57;;;18.00;99.90;;;;;;5038000;28;20522;-90
2023/08/12 04:26:24;;;;;;;1.38;0.73;;;18.00;99.90;;;;;;5057978;28;20063;-89
2023/08/12 04:28:49;;;;;;;0.45;0.35;;;18.10;99.90;;;;;;5040358;28;20426;-89
2023/08/12 04:31:15;;;;;;;0.30;0.30;;;19.00;99.90;;;;;;5040322;28;20044;-89
2023/08/12 04:33:41;;;;;;;3.28;1.67;;;18.50;99.90;;;;;;5060653;28;20056;-89
2023/08/12 04:36:07;;;;;;;0.65;0.52;;;18.20;99.90;;;;;;5064831;28;20470;-89
2023/08/12 04:38:33;;;;;;;2.85;0.80;;;18.30;99.90;;;;;;5057991;28;20048;-89
2023/08/12 04:40:58;;;;;;;0.30;0.30;;;18.30;99.90;;;;;;5062635;28;20052;-89
2023/08/12 04:43:24;;;;;;;0.73;0.63;;;18.30;99.90;;;;;;5062603;28;20029;-89
2023/08/12 04:45:50;;;;;;;2.15;0.55;;;18.50;99.90;;;;;;5062708;28;20052;-89
2023/08/12 04:48:16;;;;;;;0.40;0.40;;;18.30;99.90;;;;;;5061233;28;20045;-89
2023/08/12 04:50:42;;;;;;;6.13;1.95;;;18.40;99.90;;;;;;5059916;28;20060;-89
2023/08/12 04:53:08;;;;;;;1.27;0.75;;;18.30;99.90;;;;;;5067060;28;20546;-89
2023/08/12 04:55:38;;;;;;;0.55;0.47;;;18.40;99.90;;;;;;5061478;28;20051;-89
2023/08/12 04:58:04;;;;;;;0.40;0.40;;;18.40;99.90;;;;;;5060019;28;20049;-89
2023/08/12 05:00:30;;;;;;;0.93;0.80;;;18.50;99.90;;;;;;5056637;28;20396;-89
2023/08/12 05:02:55;;;;;;;1.40;1.30;;;18.50;99.90;;;;;;5059340;28;20068;-89
2023/08/12 05:05:21;;;;;;;0.52;0.38;;;18.50;99.90;;;;;;5057416;28;20061;-89
2023/08/12 05:07:50;;;;;;;2.47;1.05;;;18.60;99.90;;;;;;5055089;28;20037;-89
2023/08/12 05:10:16;;;;;;;2.70;1.67;;;18.60;99.90;;;;;;5061074;28;20067;-89
2023/08/12 05:12:47;;;;;;;0.35;0.35;;;18.60;99.90;;;;;;5055563;28;20084;-89
2023/08/12 05:15:13;;;;;;;1.10;0.90;;;18.60;99.90;;;;;;5055310;28;20051;-89
2023/08/12 05:17:38;;;;;;;0.30;0.30;;;18.90;99.90;;;;;;5050683;28;20590;-89
2023/08/12 05:20:05;;;;;;;0.98;0.90;;;18.70;99.90;;;;;;5037755;28;20029;-89
2023/08/12 05:22:31;;;;;;;0.35;0.35;;;18.90;99.90;;;;;;5061916;28;20159;-89
2023/08/12 05:24:56;;;;;;;1.15;0.73;;;19.00;99.90;;;;;;5055640;28;20037;-89
2023/08/12 05:27:22;;;;;;;3.58;1.38;;;19.30;99.90;;;;;;5039070;28;20045;-89
2023/08/12 05:29:48;;;;;;;0.40;0.40;;;19.40;99.90;;;;;;5055861;28;20049;-89
2023/08/12 05:32:13;;;;;;;1.40;0.90;;;20.20;99.90;;;;;;5055266;28;20462;-89
2023/08/12 05:34:39;;;;;;;0.38;0.30;;;19.50;99.90;;;;;;5054921;28;20755;-89
2023/08/12 05:37:05;;;;;;;0.47;0.32;;;19.60;99.90;;;;;;5060175;28;20099;-89
2023/08/12 05:39:30;;;;;;;1.33;0.45;;;19.80;99.90;;;;;;5054405;28;20056;-89
2023/08/12 05:41:56;;;;;;;3.38;1.70;;;19.90;99.90;;;;;;5050737;28;20049;-89
2023/08/12 05:44:22;;;;;;;3.55;1.13;;;20.00;99.90;;;;;;5034903;28;20060;-89
2023/08/12 05:46:47;;;;;;;1.58;0.95;;;20.10;66.40;;;;;;5033473;28;20128;-89
2023/08/12 05:49:13;;;;;;;0.95;0.82;;;20.10;55.80;;;;;;5049843;28;20045;-89
2023/08/12 05:51:39;;;;;;;1.70;0.85;;;20.20;11.60;;;;;;5036259;28;20062;-89
2023/08/12 05:54:05;;;;;;;0.75;0.73;;;20.30;1.00;;;;;;5052539;28;20449;-89
2023/08/12 05:56:30;;;;;;;1.20;0.68;;;20.30;1.00;;;;;;5052876;28;20075;-89
2023/08/12 05:58:56;;;;;;;0.77;0.70;;;20.40;99.90;;;;;;5040509;28;20060;-89
2023/08/12 06:01:22;;;;;;;1.45;1.15;;;20.50;99.90;;;;;;5059222;28;20491;-89
2023/08/12 06:03:47;;;;;;;1.60;0.93;;;20.60;99.90;;;;;;5057960;28;20045;-89
2023/08/12 06:06:13;;;;;;;1.08;0.93;;;20.70;99.90;;;;;;5054107;28;20509;-89
2023/08/12 06:08:39;;;;;;;16.80;1.08;;;20.90;1.00;;;;;;5056348;28;20095;-89
2023/08/12 06:11:05;;;;;;;1.30;1.20;;;20.70;5.50;;;;;;5054940;28;20150;-89
2023/08/12 06:13:30;;;;;;;0.57;0.57;;;20.80;1.00;;;;;;5057578;28;20557;-89
2023/08/12 06:15:56;;;;;;;10.80;1.42;;;20.90;1.00;;;;;;5053106;28;20052;-89
2023/08/12 06:18:22;;;;;;;0.80;0.70;;;21.10;99.90;;;;;;5055494;28;20396;-89
2023/08/12 06:20:48;;;;;;;0.95;0.82;;;21.30;99.90;;;;;;5053073;28;20048;-89
2023/08/12 06:23:13;;;;;;;0.75;0.73;;;21.90;1.00;;;;;;5052889;28;20052;-89
2023/08/12 06:25:40;;;;;;;1.17;0.68;;;21.40;99.90;;;;;;5052594;28;20052;-89
2023/08/12 06:28:07;;;;;;;0.63;0.63;;;21.40;99.90;;;;;;5052259;28;20483;-89
2023/08/12 06:30:33;;;;;;;1.35;1.15;;;21.30;1.00;;;;;;5036118;28;20052;-87
2023/08/12 06:32:59;;;;;;;0.73;0.63;;;21.50;1.00;;;;;;5049836;28;20556;-87
2023/08/12 06:35:24;;;;;;;0.82;0.70;;;21.30;1.00;;;;;;5053213;28;21621;-86
2023/08/12 06:37:50;;;;;;;2.45;1.13;;;21.40;99.90;;;;;;5051265;28;20073;-85
2023/08/12 06:40:16;;;;;;;0.43;0.43;;;21.30;99.90;;;;;;5050336;28;20045;-86
2023/08/12 06:42:41;;;;;;;1.33;1.23;;;21.30;1.00;;;;;;5048348;28;20045;-86
2023/08/12 06:45:08;;;;;;;0.50;0.50;;;21.40;99.90;;;;;;5049364;28;20045;-86
2023/08/12 06:47:34;;;;;;;0.75;0.75;;;21.50;85.00;;;;;;5050405;28;20045;-87
2023/08/12 06:49:59;;;;;;;0.90;0.85;;;21.50;1.00;;;;;;5052632;28;20518;-88
2023/08/12 06:52:25;;;;;;;1.08;0.75;;;21.50;58.60;;;;;;5054846;28;20364;-87
2023/08/12 06:54:51;;;;;;;0.80;0.70;;;21.60;1.00;;;;;;5053679;28;20126;-88
2023/08/12 06:57:16;;;;;;;0.73;0.60;;;21.60;35.40;;;;;;5035950;28;20044;-87
2023/08/12 06:59:42;;;;;;;1.05;0.80;;;21.60;99.90;;;;;;5048997;28;20399;-88
2023/08/12 07:02:08;;;;;;;1.00;0.95;;;21.70;93.60;;;;;;5049886;28;20586;-88
2023/08/12 07:04:33;;;;;;;2.03;1.08;;;21.70;99.90;;;;;;5031944;28;20139;-88
2023/08/12 07:06:59;;;;;;;0.45;0.45;;;21.70;18.50;;;;;;5047077;28;20104;-87
2023/08/12 07:09:25;;;;;;;0.90;0.85;;;21.70;1.00;;;;;;5048245;28;20051;-88
2023/08/12 07:11:51;;;;;;;0.82;0.73;;;21.60;1.00;;;;;;5047678;28;20120;-88
2023/08/12 07:14:16;;;;;;;1.33;1.20;;;21.50;1.00;;;;;;5033741;28;20055;-88
2023/08/12 07:16:42;;;;;;;10.93;1.48;;;21.50;39.00;;;;;;5053811;28;20156;-88
2023/08/12 07:19:07;;;;;;;0.93;0.75;;;21.50;33.80;;;;;;5057514;28;20076;-87
2023/08/12 07:21:33;;;;;;;2.53;1.25;;;21.40;99.90;;;;;;5057015;28;20068;-88
2023/08/12 07:23:59;;;;;;;3.10;1.50;;;21.50;1.00;;;;;;5054270;28;20068;-88
2023/08/12 07:26:25;;;;;;;1.10;0.80;;;21.40;93.70;;;;;;5067703;28;20044;-88
2023/08/12 07:28:50;;;;;;;0.10;0.10;;;21.40;99.90;;;;;;5050534;28;20025;-87
2023/08/12 07:31:17;;;;;;;1.30;1.05;;;21.40;99.90;;;;;;5069601;28;20040;-87
2023/08/12 07:33:42;;;;;;;1.13;0.82;;;21.40;99.90;;;;;;5068184;28;20053;-88
2023/08/12 07:36:08;;;;;;;1.08;0.50;;;21.40;99.90;;;;;;5071438;28;20098;-87
2023/08/12 07:38:34;;;;;;;0.73;0.65;;;21.50;99.90;;;;;;5071007;28;20057;-87
2023/08/12 07:41:00;;;;;;;1.13;0.73;;;21.40;99.90;;;;;;5051650;28;20025;-87
2023/08/12 07:43:26;;;;;;;1.60;1.40;;;21.50;99.90;;;;;;5059951;28;20033;-88
2023/08/12 07:45:55;;;;;;;1.15;0.88;;;21.60;99.90;;;;;;5051182;28;20133;-87
2023/08/12 07:48:28;;;;;;;1.55;1.27;;;21.60;99.90;;;;;;5052590;28;20075;-88
2023/08/12 07:50:58;;;;;;;0.90;0.85;;;21.60;99.90;;;;;;5053536;28;20909;-87
2023/08/12 07:53:24;;;;;;;1.42;1.17;;;21.80;99.90;;;;;;5035143;28;20119;-88
2023/08/12 07:55:51;;;;;;;2.03;1.05;;;21.80;54.30;;;;;;5048268;28;20452;-86
2023/08/12 07:58:16;;;;;;;1.08;1.00;;;21.90;1.00;;;;;;5046455;28;20060;-86
2023/08/12 08:00:42;;;;;;;1.88;1.50;;;21.90;1.00;;;;;;5044976;28;20495;-85
2023/08/12 08:03:07;;;;;;;1.35;1.15;;;22.00;1.00;;;;;;5027997;28;20083;-86
2023/08/12 08:05:33;;;;;;;2.53;1.67;;;22.50;1.00;;;;;;5047288;28;20064;-86
2023/08/12 08:07:59;;;;;;;0.88;0.88;;;22.10;1.00;;;;;;5045128;28;20377;-86
2023/08/12 08:10:24;;;;;;;2.97;2.17;;;22.10;1.00;;;;;;5043388;28;20044;-87
2023/08/12 08:12:50;;;;;;;1.88;1.48;;;22.10;99.90;;;;;;5043260;28;20044;-86
2023/08/12 08:15:17;;;;;;;1.45;1.25;;;22.10;99.90;;;;;;5045590;28;20048;-86
2023/08/12 08:17:43;;;;;;;2.92;1.50;;;22.10;99.90;;;;;;5045023;28;20817;-87
2023/08/12 08:20:10;;;;;;;0.40;0.40;;;22.40;1.00;;;;;;5047274;28;20048;-87
2023/08/12 08:22:36;;;;;;;2.30;0.82;;;22.40;1.00;;;;;;5051601;28;20053;-87
2023/08/12 08:25:02;;;;;;;3.22;1.88;;;22.60;99.90;;;;;;5049619;28;20052;-87
2023/08/12 08:27:28;;;;;;;0.70;0.70;;;22.60;1.00;;;;;;5047945;28;20045;-88
2023/08/12 08:29:54;;;;;;;0.75;0.75;;;22.60;99.90;;;;;;5049325;28;20049;-87
2023/08/12 08:32:19;;;;;;;2.03;1.35;;;22.50;1.00;;;;;;5050010;28;20076;-87
2023/08/12 08:34:45;;;;;;;1.33;1.23;;;22.40;1.00;;;;;;5050869;28;20052;-88
2023/08/12 08:37:11;;;;;;;1.45;1.15;;;22.30;1.00;;;;;;5049229;28;20111;-87
2023/08/12 08:39:36;;;;;;;2.53;1.48;;;22.10;99.90;;;;;;5048659;28;20045;-87
2023/08/12 08:42:05;;;;;;;1.15;0.93;;;22.10;99.90;;;;;;5048166;28;20095;-87
2023/08/12 08:44:33;;;;;;;7.60;2.28;;;22.10;99.90;;;;;;5047137;28;20044;-87
2023/08/12 08:46:59;;;;;;;5.13;1.15;;;22.10;99.90;;;;;;5049662;28;20410;-87
2023/08/12 08:49:26;;;;;;;1.55;1.15;;;22.10;99.90;;;;;;5030502;28;20051;-87
2023/08/12 08:51:52;;;;;;;1.33;1.23;;;22.30;99.90;;;;;;5050182;28;20077;-87
2023/08/12 08:54:19;;;;;;;1.55;0.80;;;22.10;99.90;;;;;;5049520;28;20527;-87
2023/08/12 08:56:47;;;;;;;1.25;1.15;;;22.00;99.90;;;;;;5026321;28;20080;-87
2023/08/12 08:59:13;;;;;;;0.95;0.82;;;21.90;99.90;;;;;;5027044;28;20555;-88
2023/08/12 09:01:40;;;;;;;0.30;0.28;;;21.80;1.00;;;;;;5047221;28;20132;-87
2023/08/12 09:04:07;;;;;;;1.27;0.90;;;21.60;99.90;;;;;;5030869;28;20864;-88
2023/08/12 09:06:35;;;;;;;0.63;0.63;;;21.30;99.90;;;;;;5047128;28;20522;-89
2023/08/12 09:09:02;;;;;;;1.65;1.05;;;21.10;99.90;;;;;;5047539;28;20041;-88
2023/08/12 09:11:29;;;;;;;0.75;0.70;;;20.90;1.00;;;;;;5048419;28;20048;-89
2023/08/12 09:13:54;;;;;;;1.00;0.85;;;20.80;99.90;;;;;;5031354;28;20060;-89
2023/08/12 09:16:20;;;;;;;2.20;1.08;;;21.00;99.90;;;;;;5047947;28;20041;-88
2023/08/12 09:18:46;;;;;;;0.47;0.45;;;21.10;1.00;;;;;;5049378;28;20153;-88
2023/08/12 09:21:11;;;;;;;3.50;1.00;;;20.40;99.90;;;;;;5049735;28;20041;-88
2023/08/12 09:23:39;;;;;;;5.20;1.02;;;20.30;99.90;;;;;;5046611;28;20041;-88
2023/08/12 09:26:17;;;;;;;1.25;0.80;;;20.60;99.90;;;;;;5030100;28;20049;-89
2023/08/12 09:28:43;;;;;;;3.53;2.42;;;20.00;1.00;;;;;;5029776;28;20104;-90
2023/08/12 09:31:28;;;;;;;1.95;0.95;;;20.00;99.90;;;;;;5030202;28;20044;-89
2023/08/12 09:33:58;;;;;;;1.42;1.27;;;19.80;99.90;;;;;;5029893;28;20181;-90
2023/08/12 09:36:27;;;;;;;0.70;0.70;;;20.10;99.90;;;;;;5048830;28;20049;-89
2023/08/12 09:38:53;;;;;;;1.17;0.90;;;19.80;99.90;;;;;;5050308;28;20131;-90
2023/08/12 09:41:18;;;;;;;0.47;0.47;;;19.80;99.90;;;;;;5046916;28;20621;-90
2023/08/12 09:43:44;;;;;;;0.98;0.75;;;19.80;99.90;;;;;;5046997;28;20055;-90
2023/08/12 09:46:14;;;;;;;0.70;0.70;;;20.40;99.90;;;;;;5030884;28;20048;-89
2023/08/12 09:48:40;;;;;;;2.58;1.35;;;20.40;99.90;;;;;;5046621;28;20045;-89
2023/08/12 09:51:07;;;;;;;3.85;2.00;;;20.00;99.90;;;;;;5047848;28;20133;-90
2023/08/12 09:53:34;;;;;;;2.00;1.40;;;19.80;99.90;;;;;;5031307;28;20056;-90
2023/08/12 09:56:20;;;;;;;5.53;1.75;;;19.80;99.90;;;;;;5030585;28;20452;-90
2023/08/12 09:58:49;;;;;;;;;;;19.70;99.90;;;;;;5047228;28;20899;-90
2023/08/12 10:01:20;;;;;;;0.40;0.38;;;19.70;99.90;;;;;;5047338;28;20762;-89
2023/08/12 10:03:50;;;;;;;0.55;0.55;;;20.40;99.90;;;;;;5046043;28;20048;-89
2023/08/12 10:06:16;;;;;;;0.28;0.28;;;19.70;99.90;;;;;;5045932;28;20061;-89
2023/08/12 10:08:42;;;;;;;5.53;1.33;;;20.80;99.90;;;;;;5046943;28;20040;-89
2023/08/12 10:11:09;;;;;;;0.60;0.55;;;19.80;99.90;;;;;;5046329;28;20094;-90
2023/08/12 10:13:36;;;;;;;1.00;0.60;;;19.90;99.90;;;;;;5046645;28;20140;-90
2023/08/12 10:16:02;;;;;;;0.43;0.38;;;20.70;99.90;;;;;;5046861;28;20582;-90
2023/08/12 10:18:30;;;;;;;0.63;0.45;;;20.00;99.90;;;;;;5048112;28;20144;-90
2023/08/12 10:20:58;;;;;;;0.00;0.00;;;19.70;99.90;;;;;;5047134;28;20456;-90
2023/08/12 10:23:24;;;;;;;0.05;0.05;;;19.60;99.90;;;;;;5046806;28;20053;-90
2023/08/12 10:25:54;;;;;;;0.10;0.10;;;19.70;99.90;;;;;;5030740;28;20108;-90
2023/08/12 10:28:20;;;;;;;0.10;0.10;;;20.10;99.90;;;;;;5048842;28;20526;-91
2023/08/12 10:30:46;;;;;;;0.25;0.25;;;19.60;99.90;;;;;;5048161;28;20479;-91
2023/08/12 10:33:16;;;;;;;0.57;0.50;;;19.90;99.90;;;;;;5046609;28;20073;-91
2023/08/12 10:35:49;;;;;;;0.20;0.20;;;19.60;99.90;;;;;;5046401;28;20061;-90
2023/08/12 10:38:20;;;;;;;0.17;0.17;;;19.70;99.90;;;;;;5047366;28;20088;-91
2023/08/12 10:40:47;;;;;;;0.32;0.28;;;19.80;99.90;;;;;;5047416;28;20091;-91
2023/08/12 10:43:14;;;;;;;0.55;0.47;;;19.80;99.90;;;;;;5033788;28;20103;-91
2023/08/12 10:45:43;;;;;;;0.55;0.43;;;19.80;99.90;;;;;;5059061;28;20051;-91
2023/08/12 10:48:11;;;;;;;0.50;0.40;;;20.90;99.90;;;;;;5055275;28;20131;-91
2023/08/12 10:50:43;;;;;;;0.20;0.20;;;19.80;99.90;;;;;;5054449;28;20055;-90
2023/08/12 10:53:24;;;;;;;1.55;0.63;;;19.90;99.90;;;;;;5051399;28;20056;-90
2023/08/12 10:55:50;;;;;;;1.55;0.75;;;19.80;99.90;;;;;;5036265;28;20139;-91
2023/08/12 10:58:46;;;;;;;0.38;0.38;;;19.80;99.90;;;;;;5057383;28;20096;-91
2023/08/12 11:01:18;;;;;;;0.52;0.38;;;19.80;99.90;;;;;;5043232;28;20483;-91
2023/08/12 11:03:44;;;;;;;0.10;0.10;;;19.70;99.90;;;;;;5052958;28;20060;-91
2023/08/12 11:06:13;;;;;;;1.00;0.80;;;19.70;99.90;;;;;;5035992;28;20053;-91
2023/08/12 11:08:52;;;;;;;1.38;0.73;;;19.70;99.90;;;;;;5036688;28;20094;-91
2023/08/12 11:11:25;;;;;;;0.10;0.10;;;19.70;99.90;;;;;;5050342;28;20055;-91
2023/08/12 11:13:57;;;;;;;0.50;0.50;;;19.70;99.90;;;;;;5049403;28;20060;-90
2023/08/12 11:16:37;;;;;;;0.88;0.55;;;19.90;99.90;;;;;;5050771;28;20056;-90
2023/08/12 11:19:04;;;;;;;0.00;0.00;;;20.00;99.90;;;;;;5031836;28;20450;-90
2023/08/12 11:21:30;;;;;;;0.00;0.00;;;20.00;99.90;;;;;;5050071;28;20056;-90
2023/08/12 11:23:55;;;;;;;0.28;0.20;;;20.00;99.90;;;;;;5048642;28;20049;-89
2023/08/12 11:26:24;;;;;;;1.02;0.63;;;20.00;99.90;;;;;;5049849;28;20418;-89
2023/08/12 11:28:50;;;;;;;0.13;0.13;;;20.00;99.90;;;;;;5031497;28;20139;-90
2023/08/12 11:31:17;;;;;;;1.05;0.55;;;20.20;99.90;;;;;;5047899;28;20148;-89
2023/08/12 11:33:43;;;;;;;0.43;0.22;;;20.30;99.90;;;;;;5049880;28;20096;-89
2023/08/12 11:36:09;;;;;;;0.08;0.08;;;20.40;99.90;;;;;;5047502;28;20687;-89
2023/08/12 11:38:35;;;;;;;0.40;0.22;;;20.00;99.90;;;;;;5044631;28;20055;-89
2023/08/12 11:41:02;;;;;;;0.63;0.45;;;20.70;99.90;;;;;;5045903;28;20037;-89
2023/08/12 11:43:30;;;;;;;0.88;0.63;;;20.60;99.90;;;;;;5046193;28;20092;-89
2023/08/12 11:45:56;;;;;;;0.08;0.08;;;20.50;99.90;;;;;;5045187;28;20522;-89
2023/08/12 11:48:23;;;;;;;0.32;0.10;;;20.30;99.90;;;;;;5047256;28;20060;-90
2023/08/12 11:50:50;;;;;;;0.00;0.00;;;20.10;99.90;;;;;;5047875;28;20135;-90
2023/08/12 11:53:16;;;;;;;0.47;0.25;;;20.00;99.90;;;;;;5028729;28;20463;-89
2023/08/12 11:55:42;;;;;;;0.00;0.00;;;19.90;99.90;;;;;;5029479;28;20128;-89
2023/08/12 11:58:11;;;;;;;0.60;0.45;;;20.00;99.90;;;;;;5046994;28;20049;-89
2023/08/12 12:00:37;;;;;;;0.47;0.38;;;20.40;99.90;;;;;;5045588;28;20143;-89
2023/08/12 12:03:03;;;;;;;0.05;0.03;;;20.50;99.90;;;;;;5046716;28;20475;-89
2023/08/12 12:05:34;;;;;;;0.05;0.05;;;20.40;99.90;;;;;;5046881;28;20154;-89
2023/08/12 12:08:00;;;;;;;0.20;0.20;;;20.30;99.90;;;;;;5047423;28;20053;-90
2023/08/12 12:10:27;;;;;;;0.00;0.00;;;20.10;99.90;;;;;;5045336;28;20044;-90
2023/08/12 12:12:55;;;;;;;0.00;0.00;;;20.00;99.90;;;;;;5045476;28;20175;-91
2023/08/12 12:15:21;;;;;;;0.17;0.17;;;20.30;99.90;;;;;;5044500;28;20061;-90
2023/08/12 12:17:50;;;;;;;0.00;0.00;;;19.80;99.90;;;;;;5044642;28;20535;-90
2023/08/12 12:20:17;;;;;;;0.52;0.43;;;19.60;99.90;;;;;;5045845;28;20049;-90
2023/08/12 12:22:45;;;;;;;0.28;0.28;;;19.50;99.90;;;;;;5046398;28;20053;-90
2023/08/12 12:25:13;;;;;;;0.00;0.00;;;19.30;99.90;;;;;;5046418;28;20048;-90
2023/08/12 12:27:45;;;;;;;0.10;0.10;;;19.10;99.90;;;;;;5044523;28;20507;-90
2023/08/12 12:30:12;;;;;;;0.32;0.32;;;19.20;99.90;;;;;;5045204;28;20052;-90
2023/08/12 12:32:39;;;;;;;0.17;0.10;;;18.70;99.90;;;;;;5045145;28;20488;-90
2023/08/12 12:35:08;;;;;;;0.00;0.00;;;18.70;99.90;;;;;;5043436;28;20488;-90
2023/08/12 12:37:36;;;;;;;0.45;0.43;;;18.90;99.90;;;;;;5045174;28;20052;-89
2023/08/12 12:40:02;;;;;;;0.15;0.15;;;19.10;99.90;;;;;;5043443;28;20118;-90
2023/08/12 12:42:28;;;;;;;0.80;0.30;;;19.50;99.90;;;;;;5043445;28;20040;-90
2023/08/12 12:44:54;;;;;;;0.50;0.38;;;19.70;99.90;;;;;;5026698;28;20492;-89
2023/08/12 12:47:20;;;;;;;0.80;0.25;;;19.70;99.90;;;;;;5043320;28;20127;-89